sensor_id;sensor_type;location;lat;lon;timestamp;pressure;altitude;pressure_sealevel;temperature;humidity
76311;BME280;65120;59.304;18.294;2023-06-26T00:00:12;101673.75;;;15.91;58.76
76311;BME280;65120;59.304;18.294;2023-06-26T00:02:39;101666.88;;;15.84;58.74
76311;BME280;65120;59.304;18.294;2023-06-26T00:05:07;101676.53;;;15.85;58.77
76311;BME280;65120;59.304;18.294;2023-06-26T00:07:34;101678.38;;;15.82;58.97
76311;BME280;65120;59.304;18.294;2023-06-26T00:10:02;101672.31;;;15.78;58.83
76311;BME280;65120;59.304;18.294;2023-06-26T00:12:29;101675.88;;;15.77;59.13
76311;BME280;65120;59.304;18.294;2023-06-26T00:14:58;101677.66;;;15.75;59.28
76311;BME280;65120;59.304;18.294;2023-06-26T00:17:25;101682.09;;;15.73;59.19
76311;BME280;65120;59.304;18.294;2023-06-26T00:19:52;101677.78;;;15.70;59.39
76311;BME280;65120;59.304;18.294;2023-06-26T00:22:20;101675.19;;;15.67;59.88
76311;BME280;65120;59.304;18.294;2023-06-26T00:24:47;101676.19;;;15.63;59.37
76311;BME280;65120;59.304;18.294;2023-06-26T00:27:14;101672.78;;;15.60;59.45
76311;BME280;65120;59.304;18.294;2023-06-26T00:29:41;101678.06;;;15.58;59.67
76311;BME280;65120;59.304;18.294;2023-06-26T00:32:10;101669.38;;;15.55;59.71
76311;BME280;65120;59.304;18.294;2023-06-26T00:34:36;101671.19;;;15.52;59.80
76311;BME280;65120;59.304;18.294;2023-06-26T00:37:04;101671.25;;;15.49;60.00
76311;BME280;65120;59.304;18.294;2023-06-26T00:39:30;101669.53;;;15.48;60.09
76311;BME280;65120;59.304;18.294;2023-06-26T00:41:57;101671.31;;;15.46;59.90
76311;BME280;65120;59.304;18.294;2023-06-26T00:44:24;101668.78;;;15.43;60.08
76311;BME280;65120;59.304;18.294;2023-06-26T00:46:51;101672.34;;;15.41;60.15
76311;BME280;65120;59.304;18.294;2023-06-26T00:49:20;101671.50;;;15.39;60.33
76311;BME280;65120;59.304;18.294;2023-06-26T00:51:46;101671.56;;;15.37;60.14
76311;BME280;65120;59.304;18.294;2023-06-26T00:54:14;101668.13;;;15.34;60.43
76311;BME280;65120;59.304;18.294;2023-06-26T00:56:45;101666.41;;;15.33;60.45
76311;BME280;65120;59.304;18.294;2023-06-26T00:59:13;101662.06;;;15.30;60.64
76311;BME280;65120;59.304;18.294;2023-06-26T01:01:40;101666.50;;;15.28;60.65
76311;BME280;65120;59.304;18.294;2023-06-26T01:04:06;101662.22;;;15.24;60.64
76311;BME280;65120;59.304;18.294;2023-06-26T01:06:35;101662.22;;;15.24;60.74
76311;BME280;65120;59.304;18.294;2023-06-26T01:09:03;101662.28;;;15.21;60.92
76311;BME280;65120;59.304;18.294;2023-06-26T01:11:30;101661.44;;;15.19;60.92
76311;BME280;65120;59.304;18.294;2023-06-26T01:13:59;101666.78;;;15.16;61.03
76311;BME280;65120;59.304;18.294;2023-06-26T01:16:28;101668.50;;;15.17;61.11
76311;BME280;65120;59.304;18.294;2023-06-26T01:18:56;101652.78;;;15.14;60.93
76311;BME280;65120;59.304;18.294;2023-06-26T01:21:23;101670.41;;;15.12;61.21
76311;BME280;65120;59.304;18.294;2023-06-26T01:24:07;101647.81;;;15.01;61.04
76311;BME280;65120;59.304;18.294;2023-06-26T01:26:39;101660.88;;;15.06;61.21
76311;BME280;65120;59.304;18.294;2023-06-26T01:29:07;101659.13;;;15.06;61.19
76311;BME280;65120;59.304;18.294;2023-06-26T01:31:36;101668.81;;;15.04;61.32
76311;BME280;65120;59.304;18.294;2023-06-26T01:34:04;101659.22;;;15.02;61.34
76311;BME280;65120;59.304;18.294;2023-06-26T01:36:31;101656.66;;;14.99;61.43
76311;BME280;65120;59.304;18.294;2023-06-26T01:38:58;101657.63;;;14.95;61.57
76311;BME280;65120;59.304;18.294;2023-06-26T01:41:25;101662.84;;;14.96;61.57
76311;BME280;65120;59.304;18.294;2023-06-26T01:44:11;101660.28;;;14.93;61.59
76311;BME280;65120;59.304;18.294;2023-06-26T01:46:47;101653.44;;;14.86;61.84
76311;BME280;65120;59.304;18.294;2023-06-26T01:49:21;101651.66;;;14.87;61.88
76311;BME280;65120;59.304;18.294;2023-06-26T01:51:56;101654.31;;;14.87;61.90
76311;BME280;65120;59.304;18.294;2023-06-26T01:54:30;101642.22;;;14.78;62.03
76311;BME280;65120;59.304;18.294;2023-06-26T01:57:00;101650.03;;;14.81;62.22
76311;BME280;65120;59.304;18.294;2023-06-26T01:59:31;101652.69;;;14.81;62.23
76311;BME280;65120;59.304;18.294;2023-06-26T02:02:00;101646.56;;;14.79;62.15
76311;BME280;65120;59.304;18.294;2023-06-26T02:04:28;101645.72;;;14.77;62.26
76311;BME280;65120;59.304;18.294;2023-06-26T02:06:55;101646.63;;;14.76;62.74
76311;BME280;65120;59.304;18.294;2023-06-26T02:09:22;101648.41;;;14.75;63.01
76311;BME280;65120;59.304;18.294;2023-06-26T02:11:48;101651.94;;;14.74;63.02
76311;BME280;65120;59.304;18.294;2023-06-26T02:14:15;101650.19;;;14.75;62.95
76311;BME280;65120;59.304;18.294;2023-06-26T02:16:44;101650.19;;;14.75;63.07
76311;BME280;65120;59.304;18.294;2023-06-26T02:19:10;101649.34;;;14.73;63.11
76311;BME280;65120;59.304;18.294;2023-06-26T02:21:37;101648.50;;;14.71;63.30
76311;BME280;65120;59.304;18.294;2023-06-26T02:24:05;101644.16;;;14.70;63.29
76311;BME280;65120;59.304;18.294;2023-06-26T02:26:32;101653.75;;;14.71;63.39
76311;BME280;65120;59.304;18.294;2023-06-26T02:28:59;101635.47;;;14.66;63.56
76311;BME280;65120;59.304;18.294;2023-06-26T02:31:26;101644.09;;;14.71;63.78
76311;BME280;65120;59.304;18.294;2023-06-26T02:33:54;101638.84;;;14.71;63.88
76311;BME280;65120;59.304;18.294;2023-06-26T02:36:21;101629.22;;;14.72;63.88
76311;BME280;65120;59.304;18.294;2023-06-26T02:38:48;101633.66;;;14.68;63.97
76311;BME280;65120;59.304;18.294;2023-06-26T02:41:15;101643.16;;;14.74;64.20
76311;BME280;65120;59.304;18.294;2023-06-26T02:43:42;101637.03;;;14.75;64.28
76311;BME280;65120;59.304;18.294;2023-06-26T02:46:09;101634.41;;;14.75;64.41
76311;BME280;65120;59.304;18.294;2023-06-26T02:48:35;101634.41;;;14.75;64.25
76311;BME280;65120;59.304;18.294;2023-06-26T02:51:04;101633.53;;;14.74;64.29
76311;BME280;65120;59.304;18.294;2023-06-26T02:53:31;101631.78;;;14.75;64.40
76311;BME280;65120;59.304;18.294;2023-06-26T02:55:58;101629.16;;;14.75;64.63
76311;BME280;65120;59.304;18.294;2023-06-26T02:58:25;101625.59;;;14.76;64.59
76311;BME280;65120;59.304;18.294;2023-06-26T03:00:51;101616.81;;;14.77;64.73
76311;BME280;65120;59.304;18.294;2023-06-26T03:03:19;101622.06;;;14.77;64.98
76311;BME280;65120;59.304;18.294;2023-06-26T03:05:46;101619.38;;;14.80;65.04
76311;BME280;65120;59.304;18.294;2023-06-26T03:08:14;101626.38;;;14.81;65.15
76311;BME280;65120;59.304;18.294;2023-06-26T03:10:41;101620.19;;;14.82;65.42
76311;BME280;65120;59.304;18.294;2023-06-26T03:13:08;101620.13;;;14.85;65.67
76311;BME280;65120;59.304;18.294;2023-06-26T03:15:35;101618.31;;;14.89;65.85
76311;BME280;65120;59.304;18.294;2023-06-26T03:18:02;101613.00;;;14.90;65.93
76311;BME280;65120;59.304;18.294;2023-06-26T03:20:29;101610.28;;;14.93;66.21
76311;BME280;65120;59.304;18.294;2023-06-26T03:22:56;101614.63;;;14.96;66.21
76311;BME280;65120;59.304;18.294;2023-06-26T03:25:24;101616.34;;;14.97;66.31
76311;BME280;65120;59.304;18.294;2023-06-26T03:27:51;101615.38;;;15.01;66.63
76311;BME280;65120;59.304;18.294;2023-06-26T03:30:18;101613.66;;;15.00;66.76
76311;BME280;65120;59.304;18.294;2023-06-26T03:32:45;101617.84;;;15.09;66.98
76311;BME280;65120;59.304;18.294;2023-06-26T03:35:12;101614.31;;;15.10;67.04
76311;BME280;65120;59.304;18.294;2023-06-26T03:37:40;101616.75;;;15.17;67.44
76311;BME280;65120;59.304;18.294;2023-06-26T03:40:08;101614.91;;;15.21;67.92
76311;BME280;65120;59.304;18.294;2023-06-26T03:42:36;101624.44;;;15.26;68.09
76311;BME280;65120;59.304;18.294;2023-06-26T03:45:04;101619.94;;;15.30;68.38
76311;BME280;65120;59.304;18.294;2023-06-26T03:47:31;101624.16;;;15.37;68.64
76311;BME280;65120;59.304;18.294;2023-06-26T03:49:59;101614.38;;;15.42;68.81
76311;BME280;65120;59.304;18.294;2023-06-26T03:52:26;101620.38;;;15.49;68.83
76311;BME280;65120;59.304;18.294;2023-06-26T03:54:57;101597.53;;;15.48;69.17
76311;BME280;65120;59.304;18.294;2023-06-26T03:57:24;101584.28;;;15.52;69.55
76311;BME280;65120;59.304;18.294;2023-06-26T03:59:52;101600.44;;;15.73;69.94
76311;BME280;65120;59.304;18.294;2023-06-26T04:02:19;101597.56;;;15.82;69.88
76311;BME280;65120;59.304;18.294;2023-06-26T04:04:46;101581.72;;;15.84;69.67
76311;BME280;65120;59.304;18.294;2023-06-26T04:07:13;101587.59;;;15.93;69.31
76311;BME280;65120;59.304;18.294;2023-06-26T04:09:40;101595.91;;;16.11;69.32
76311;BME280;65120;59.304;18.294;2023-06-26T04:12:07;101596.69;;;16.14;69.20
76311;BME280;65120;59.304;18.294;2023-06-26T04:14:34;101596.22;;;16.30;69.32
76311;BME280;65120;59.304;18.294;2023-06-26T04:17:03;101592.44;;;16.38;69.51
76311;BME280;65120;59.304;18.294;2023-06-26T04:19:30;101596.50;;;16.50;69.63
76311;BME280;65120;59.304;18.294;2023-06-26T04:21:57;101596.19;;;16.61;69.47
76311;BME280;65120;59.304;18.294;2023-06-26T04:24:24;101598.50;;;16.72;69.45
76311;BME280;65120;59.304;18.294;2023-06-26T04:26:51;101603.41;;;16.84;69.36
76311;BME280;65120;59.304;18.294;2023-06-26T04:29:21;101594.25;;;16.96;68.40
76311;BME280;65120;59.304;18.294;2023-06-26T04:31:50;101589.44;;;17.08;67.92
76311;BME280;65120;59.304;18.294;2023-06-26T04:34:19;101581.97;;;17.21;67.98
76311;BME280;65120;59.304;18.294;2023-06-26T04:36:46;101570.31;;;17.28;67.64
76311;BME280;65120;59.304;18.294;2023-06-26T04:39:16;101575.75;;;17.49;67.38
76311;BME280;65120;59.304;18.294;2023-06-26T04:41:44;101578.78;;;17.63;67.07
76311;BME280;65120;59.304;18.294;2023-06-26T04:44:11;101571.38;;;17.73;66.61
76311;BME280;65120;59.304;18.294;2023-06-26T04:46:41;101580.38;;;17.94;66.37
76311;BME280;65120;59.304;18.294;2023-06-26T04:49:07;101570.38;;;18.02;66.18
76311;BME280;65120;59.304;18.294;2023-06-26T04:51:36;101569.63;;;18.22;65.37
76311;BME280;65120;59.304;18.294;2023-06-26T04:54:06;101575.88;;;18.43;65.13
76311;BME280;65120;59.304;18.294;2023-06-26T04:56:33;101565.59;;;18.59;64.41
76311;BME280;65120;59.304;18.294;2023-06-26T04:58:59;101570.88;;;18.81;64.01
76311;BME280;65120;59.304;18.294;2023-06-26T05:01:26;101564.00;;;18.99;63.54
76311;BME280;65120;59.304;18.294;2023-06-26T05:03:55;101579.13;;;19.17;62.75
76311;BME280;65120;59.304;18.294;2023-06-26T05:06:22;101571.31;;;19.35;61.97
76311;BME280;65120;59.304;18.294;2023-06-26T05:08:50;101573.25;;;19.51;61.38
76311;BME280;65120;59.304;18.294;2023-06-26T05:11:17;101565.47;;;19.69;60.61
76311;BME280;65120;59.304;18.294;2023-06-26T05:13:44;101565.56;;;19.86;59.90
76311;BME280;65120;59.304;18.294;2023-06-26T05:16:11;101553.34;;;20.03;59.60
76311;BME280;65120;59.304;18.294;2023-06-26T05:18:38;101549.06;;;20.19;59.01
76311;BME280;65120;59.304;18.294;2023-06-26T05:21:05;101559.91;;;20.33;59.09
76311;BME280;65120;59.304;18.294;2023-06-26T05:23:33;101549.09;;;20.38;58.96
76311;BME280;65120;59.304;18.294;2023-06-26T05:26:03;101551.94;;;20.52;58.47
76311;BME280;65120;59.304;18.294;2023-06-26T05:28:30;101546.13;;;20.63;58.25
76311;BME280;65120;59.304;18.294;2023-06-26T05:30:58;101545.75;;;20.71;57.87
76311;BME280;65120;59.304;18.294;2023-06-26T05:33:26;101542.59;;;20.81;57.43
76311;BME280;65120;59.304;18.294;2023-06-26T05:35:54;101553.56;;;20.93;57.26
76311;BME280;65120;59.304;18.294;2023-06-26T05:38:22;101546.66;;;21.06;56.48
76311;BME280;65120;59.304;18.294;2023-06-26T05:40:49;101553.94;;;21.20;56.34
76311;BME280;65120;59.304;18.294;2023-06-26T05:43:18;101540.13;;;21.30;56.13
76311;BME280;65120;59.304;18.294;2023-06-26T05:45:48;101544.06;;;21.41;55.67
76311;BME280;65120;59.304;18.294;2023-06-26T05:48:15;101542.63;;;21.51;55.71
76311;BME280;65120;59.304;18.294;2023-06-26T05:50:42;101540.59;;;21.56;55.23
76311;BME280;65120;59.304;18.294;2023-06-26T05:53:11;101535.06;;;21.61;54.59
76311;BME280;65120;59.304;18.294;2023-06-26T05:55:38;101529.56;;;21.64;54.24
76311;BME280;65120;59.304;18.294;2023-06-26T05:58:10;101532.59;;;21.73;53.89
76311;BME280;65120;59.304;18.294;2023-06-26T06:00:39;101534.75;;;21.83;53.46
76311;BME280;65120;59.304;18.294;2023-06-26T06:03:06;101538.81;;;21.90;52.47
76311;BME280;65120;59.304;18.294;2023-06-26T06:05:35;101527.66;;;21.99;52.24
76311;BME280;65120;59.304;18.294;2023-06-26T06:08:02;101529.06;;;22.06;51.84
76311;BME280;65120;59.304;18.294;2023-06-26T06:10:29;101530.44;;;22.13;51.80
76311;BME280;65120;59.304;18.294;2023-06-26T06:12:56;101528.41;;;22.18;51.46
76311;BME280;65120;59.304;18.294;2023-06-26T06:15:23;101526.38;;;22.23;51.12
76311;BME280;65120;59.304;18.294;2023-06-26T06:17:51;101524.38;;;22.27;51.24
76311;BME280;65120;59.304;18.294;2023-06-26T06:20:19;101526.19;;;22.27;51.13
76311;BME280;65120;59.304;18.294;2023-06-26T06:22:46;101517.44;;;22.25;50.95
76311;BME280;65120;59.304;18.294;2023-06-26T06:25:14;101516.50;;;22.26;50.49
76311;BME280;65120;59.304;18.294;2023-06-26T06:27:41;101514.59;;;22.28;50.50
76311;BME280;65120;59.304;18.294;2023-06-26T06:30:10;101517.09;;;22.31;50.31
76311;BME280;65120;59.304;18.294;2023-06-26T06:32:37;101523.25;;;22.31;50.45
76311;BME280;65120;59.304;18.294;2023-06-26T06:35:06;101518.72;;;22.33;49.76
76311;BME280;65120;59.304;18.294;2023-06-26T06:37:35;101519.50;;;22.35;49.83
76311;BME280;65120;59.304;18.294;2023-06-26T06:40:03;101516.72;;;22.37;49.86
76311;BME280;65120;59.304;18.294;2023-06-26T06:42:31;101517.50;;;22.39;49.89
76311;BME280;65120;59.304;18.294;2023-06-26T06:44:58;101517.44;;;22.40;49.71
76311;BME280;65120;59.304;18.294;2023-06-26T06:47:25;101516.41;;;22.43;49.65
76311;BME280;65120;59.304;18.294;2023-06-26T06:49:52;101512.00;;;22.42;49.21
76311;BME280;65120;59.304;18.294;2023-06-26T06:52:20;101511.59;;;22.50;48.88
76311;BME280;65120;59.304;18.294;2023-06-26T06:54:54;101508.50;;;22.57;48.54
76311;BME280;65120;59.304;18.294;2023-06-26T06:57:21;101506.94;;;22.69;48.13
76311;BME280;65120;59.304;18.294;2023-06-26T06:59:48;101513.44;;;22.79;47.74
76311;BME280;65120;59.304;18.294;2023-06-26T07:02:17;101507.25;;;22.79;46.94
76311;BME280;65120;59.304;18.294;2023-06-26T07:04:44;101506.38;;;22.94;46.85
76311;BME280;65120;59.304;18.294;2023-06-26T07:07:12;101509.44;;;23.02;46.91
76311;BME280;65120;59.304;18.294;2023-06-26T07:09:41;101498.63;;;23.05;46.19
76311;BME280;65120;59.304;18.294;2023-06-26T07:12:08;101510.44;;;23.16;46.75
76311;BME280;65120;59.304;18.294;2023-06-26T07:14:35;101500.38;;;23.21;45.60
76311;BME280;65120;59.304;18.294;2023-06-26T07:17:02;101500.59;;;23.32;44.99
76311;BME280;65120;59.304;18.294;2023-06-26T07:19:29;101499.63;;;23.47;44.97
76311;BME280;65120;59.304;18.294;2023-06-26T07:21:56;101500.41;;;23.64;44.71
76311;BME280;65120;59.304;18.294;2023-06-26T07:24:26;101488.47;;;23.71;44.29
76311;BME280;65120;59.304;18.294;2023-06-26T07:26:54;101506.53;;;23.94;43.74
76311;BME280;65120;59.304;18.294;2023-06-26T07:29:21;101487.56;;;23.99;44.37
76311;BME280;65120;59.304;18.294;2023-06-26T07:31:48;101494.88;;;24.10;44.18
76311;BME280;65120;59.304;18.294;2023-06-26T07:34:15;101499.63;;;24.19;44.31
76311;BME280;65120;59.304;18.294;2023-06-26T07:36:42;101501.16;;;24.23;44.36
76311;BME280;65120;59.304;18.294;2023-06-26T07:39:09;101503.63;;;24.26;44.69
76311;BME280;65120;59.304;18.294;2023-06-26T07:41:36;101499.06;;;24.28;44.38
76311;BME280;65120;59.304;18.294;2023-06-26T07:44:04;101492.75;;;24.29;43.46
76311;BME280;65120;59.304;18.294;2023-06-26T07:46:31;101489.09;;;24.30;43.66
76311;BME280;65120;59.304;18.294;2023-06-26T07:49:00;101484.34;;;24.35;43.66
76311;BME280;65120;59.304;18.294;2023-06-26T07:51:27;101482.50;;;24.36;43.01
76311;BME280;65120;59.304;18.294;2023-06-26T07:53:54;101488.75;;;24.36;42.80
76311;BME280;65120;59.304;18.294;2023-06-26T07:56:20;101475.47;;;24.35;43.87
76311;BME280;65120;59.304;18.294;2023-06-26T07:58:47;101477.75;;;24.41;44.29
76311;BME280;65120;59.304;18.294;2023-06-26T08:01:16;101475.91;;;24.41;44.67
76311;BME280;65120;59.304;18.294;2023-06-26T08:03:43;101478.59;;;24.41;45.26
76311;BME280;65120;59.304;18.294;2023-06-26T08:06:10;101476.81;;;24.42;45.69
76311;BME280;65120;59.304;18.294;2023-06-26T08:08:37;101474.81;;;24.45;45.92
76311;BME280;65120;59.304;18.294;2023-06-26T08:11:04;101479.19;;;24.46;46.06
76311;BME280;65120;59.304;18.294;2023-06-26T08:13:30;101471.94;;;24.49;46.72
76311;BME280;65120;59.304;18.294;2023-06-26T08:15:57;101456.00;;;24.47;46.47
76311;BME280;65120;59.304;18.294;2023-06-26T08:18:26;101464.47;;;24.54;46.77
76311;BME280;65120;59.304;18.294;2023-06-26T08:20:53;101462.53;;;24.56;46.07
76311;BME280;65120;59.304;18.294;2023-06-26T08:23:19;101467.69;;;24.59;45.53
76311;BME280;65120;59.304;18.294;2023-06-26T08:25:47;101460.22;;;24.64;45.93
76311;BME280;65120;59.304;18.294;2023-06-26T08:28:14;101458.31;;;24.66;45.67
76311;BME280;65120;59.304;18.294;2023-06-26T08:30:41;101456.59;;;24.65;45.59
76311;BME280;65120;59.304;18.294;2023-06-26T08:33:08;101461.31;;;24.74;45.56
76311;BME280;65120;59.304;18.294;2023-06-26T08:35:39;101463.88;;;24.76;45.55
76311;BME280;65120;59.304;18.294;2023-06-26T08:38:06;101463.78;;;24.77;44.47
76311;BME280;65120;59.304;18.294;2023-06-26T08:40:34;101456.53;;;24.79;45.27
76311;BME280;65120;59.304;18.294;2023-06-26T08:43:02;101453.66;;;24.82;45.50
76311;BME280;65120;59.304;18.294;2023-06-26T08:45:29;101455.16;;;24.86;45.69
76311;BME280;65120;59.304;18.294;2023-06-26T08:48:00;101448.66;;;24.90;44.87
76311;BME280;65120;59.304;18.294;2023-06-26T08:50:30;101446.50;;;24.96;44.94
76311;BME280;65120;59.304;18.294;2023-06-26T08:53:04;101448.00;;;25.00;45.30
76311;BME280;65120;59.304;18.294;2023-06-26T08:55:38;101445.00;;;25.04;45.14
76311;BME280;65120;59.304;18.294;2023-06-26T08:58:07;101440.63;;;25.03;45.22
76311;BME280;65120;59.304;18.294;2023-06-26T09:00:34;101442.03;;;25.09;44.83
76311;BME280;65120;59.304;18.294;2023-06-26T09:03:03;101446.19;;;25.13;44.78
76311;BME280;65120;59.304;18.294;2023-06-26T09:05:30;101453.94;;;25.18;44.73
76311;BME280;65120;59.304;18.294;2023-06-26T09:07:58;101450.09;;;25.22;44.55
76311;BME280;65120;59.304;18.294;2023-06-26T09:10:26;101457.78;;;25.26;44.33
76311;BME280;65120;59.304;18.294;2023-06-26T09:12:55;101457.56;;;25.29;44.14
76311;BME280;65120;59.304;18.294;2023-06-26T09:15:22;101455.66;;;25.31;44.21
76311;BME280;65120;59.304;18.294;2023-06-26T09:17:49;101453.72;;;25.33;44.19
76311;BME280;65120;59.304;18.294;2023-06-26T09:20:16;101454.38;;;25.37;44.20
76311;BME280;65120;59.304;18.294;2023-06-26T09:22:47;101448.78;;;25.40;43.17
76311;BME280;65120;59.304;18.294;2023-06-26T09:25:14;101457.22;;;25.47;43.59
76311;BME280;65120;59.304;18.294;2023-06-26T09:27:43;101454.34;;;25.50;43.24
76311;BME280;65120;59.304;18.294;2023-06-26T09:30:11;101448.81;;;25.53;43.57
76311;BME280;65120;59.304;18.294;2023-06-26T09:32:37;101454.66;;;25.58;42.86
76311;BME280;65120;59.304;18.294;2023-06-26T09:35:05;101437.66;;;25.59;42.72
76311;BME280;65120;59.304;18.294;2023-06-26T09:37:32;101447.38;;;25.60;42.32
76311;BME280;65120;59.304;18.294;2023-06-26T09:40:00;101427.41;;;25.53;43.09
76311;BME280;65120;59.304;18.294;2023-06-26T09:42:29;101427.28;;;25.54;42.64
76311;BME280;65120;59.304;18.294;2023-06-26T09:44:57;101442.56;;;25.65;42.96
76311;BME280;65120;59.304;18.294;2023-06-26T09:47:24;101437.22;;;25.65;42.23
76311;BME280;65120;59.304;18.294;2023-06-26T09:49:51;101437.44;;;25.62;42.12
76311;BME280;65120;59.304;18.294;2023-06-26T09:52:20;101436.38;;;25.65;42.28
76311;BME280;65120;59.304;18.294;2023-06-26T09:54:47;101414.53;;;25.58;42.17
76311;BME280;65120;59.304;18.294;2023-06-26T09:57:16;101433.47;;;25.68;42.04
76311;BME280;65120;59.304;18.294;2023-06-26T09:59:44;101426.75;;;25.62;41.72
76311;BME280;65120;59.304;18.294;2023-06-26T10:02:12;101436.16;;;25.68;41.20
76311;BME280;65120;59.304;18.294;2023-06-26T10:04:39;101437.00;;;25.68;42.03
76311;BME280;65120;59.304;18.294;2023-06-26T10:07:11;101438.69;;;25.69;41.57
76311;BME280;65120;59.304;18.294;2023-06-26T10:09:41;101425.44;;;25.68;41.44
76311;BME280;65120;59.304;18.294;2023-06-26T10:12:12;101428.97;;;25.68;40.98
76311;BME280;65120;59.304;18.294;2023-06-26T10:14:42;101428.00;;;25.69;40.75
76311;BME280;65120;59.304;18.294;2023-06-26T10:17:10;101427.03;;;25.70;41.17
76311;BME280;65120;59.304;18.294;2023-06-26T10:19:44;101426.28;;;25.68;41.13
76311;BME280;65120;59.304;18.294;2023-06-26T10:22:12;101429.94;;;25.67;40.83
76311;BME280;65120;59.304;18.294;2023-06-26T10:24:41;101428.44;;;25.63;40.92
76311;BME280;65120;59.304;18.294;2023-06-26T10:27:14;101429.50;;;25.61;41.34
76311;BME280;65120;59.304;18.294;2023-06-26T10:29:43;101427.19;;;25.56;41.05
76311;BME280;65120;59.304;18.294;2023-06-26T10:32:12;101409.22;;;25.45;40.97
76311;BME280;65120;59.304;18.294;2023-06-26T10:34:42;101425.91;;;25.49;41.37
76311;BME280;65120;59.304;18.294;2023-06-26T10:37:09;101421.53;;;25.48;41.26
76311;BME280;65120;59.304;18.294;2023-06-26T10:39:49;101419.91;;;25.45;41.18
76311;BME280;65120;59.304;18.294;2023-06-26T10:42:16;101416.59;;;25.42;41.07
76311;BME280;65120;59.304;18.294;2023-06-26T10:44:45;101407.06;;;25.38;41.22
76311;BME280;65120;59.304;18.294;2023-06-26T10:47:28;101416.69;;;25.40;41.34
76311;BME280;65120;59.304;18.294;2023-06-26T10:49:57;101410.50;;;25.40;40.99
76311;BME280;65120;59.304;18.294;2023-06-26T10:52:42;101410.72;;;25.37;40.89
76311;BME280;65120;59.304;18.294;2023-06-26T10:55:09;101410.06;;;25.33;40.99
76311;BME280;65120;59.304;18.294;2023-06-26T10:57:36;101402.47;;;25.27;41.08
76311;BME280;65120;59.304;18.294;2023-06-26T11:00:10;101399.81;;;25.27;40.96
76311;BME280;65120;59.304;18.294;2023-06-26T11:02:47;101404.31;;;25.26;41.25
76311;BME280;65120;59.304;18.294;2023-06-26T11:05:25;101401.97;;;25.22;41.40
76311;BME280;65120;59.304;18.294;2023-06-26T11:08:06;101390.84;;;25.15;41.07
76311;BME280;65120;59.304;18.294;2023-06-26T11:10:51;101408.47;;;25.18;40.60
76311;BME280;65120;59.304;18.294;2023-06-26T11:13:18;101410.53;;;25.14;41.16
76311;BME280;65120;59.304;18.294;2023-06-26T11:15:46;101401.06;;;25.08;40.79
76311;BME280;65120;59.304;18.294;2023-06-26T11:18:13;101398.28;;;25.10;40.89
76311;BME280;65120;59.304;18.294;2023-06-26T11:20:41;101392.63;;;25.02;40.58
76311;BME280;65120;59.304;18.294;2023-06-26T11:23:09;101400.66;;;25.02;40.46
76311;BME280;65120;59.304;18.294;2023-06-26T11:25:37;101391.13;;;24.98;40.27
76311;BME280;65120;59.304;18.294;2023-06-26T11:28:04;101386.75;;;24.97;40.47
76311;BME280;65120;59.304;18.294;2023-06-26T11:30:32;101395.63;;;24.97;40.58
76311;BME280;65120;59.304;18.294;2023-06-26T11:33:03;101384.28;;;24.94;40.70
76311;BME280;65120;59.304;18.294;2023-06-26T11:35:30;101396.78;;;24.93;40.52
76311;BME280;65120;59.304;18.294;2023-06-26T11:37:59;101386.09;;;24.93;40.71
76311;BME280;65120;59.304;18.294;2023-06-26T11:40:29;101381.84;;;24.90;40.08
76311;BME280;65120;59.304;18.294;2023-06-26T11:42:58;101385.44;;;24.89;40.04
76311;BME280;65120;59.304;18.294;2023-06-26T11:45:25;101383.00;;;24.86;40.61
76311;BME280;65120;59.304;18.294;2023-06-26T11:47:54;101375.41;;;24.80;40.34
76311;BME280;65120;59.304;18.294;2023-06-26T11:50:22;101375.41;;;24.80;40.34
76311;BME280;65120;59.304;18.294;2023-06-26T11:52:53;101375.41;;;24.80;40.22
76311;BME280;65120;59.304;18.294;2023-06-26T11:55:22;101377.22;;;24.80;39.99
76311;BME280;65120;59.304;18.294;2023-06-26T11:57:49;101373.78;;;24.78;40.23
76311;BME280;65120;59.304;18.294;2023-06-26T12:00:17;101379.91;;;24.80;40.43
76311;BME280;65120;59.304;18.294;2023-06-26T12:02:44;101387.16;;;24.78;40.08
76311;BME280;65120;59.304;18.294;2023-06-26T12:05:12;101386.19;;;24.79;40.18
76311;BME280;65120;59.304;18.294;2023-06-26T12:07:40;101372.19;;;24.75;39.80
76311;BME280;65120;59.304;18.294;2023-06-26T12:10:08;101378.94;;;24.68;39.54
76311;BME280;65120;59.304;18.294;2023-06-26T12:12:38;101374.66;;;24.65;39.03
76311;BME280;65120;59.304;18.294;2023-06-26T12:15:07;101383.59;;;24.64;39.11
76311;BME280;65120;59.304;18.294;2023-06-26T12:17:37;101371.44;;;24.60;38.75
76311;BME280;65120;59.304;18.294;2023-06-26T12:20:17;101359.56;;;24.52;38.31
76311;BME280;65120;59.304;18.294;2023-06-26T12:22:46;101370.66;;;24.58;38.01
76311;BME280;65120;59.304;18.294;2023-06-26T12:25:13;101364.69;;;24.55;38.24
76311;BME280;65120;59.304;18.294;2023-06-26T12:27:44;101355.34;;;24.48;38.14
76311;BME280;65120;59.304;18.294;2023-06-26T12:30:12;101350.03;;;24.48;37.84
76311;BME280;65120;59.304;18.294;2023-06-26T12:32:39;101364.91;;;24.52;38.61
76311;BME280;65120;59.304;18.294;2023-06-26T12:35:09;101360.53;;;24.51;38.19
76311;BME280;65120;59.304;18.294;2023-06-26T12:37:36;101355.28;;;24.49;38.54
76311;BME280;65120;59.304;18.294;2023-06-26T12:40:16;101362.44;;;24.49;38.60
76311;BME280;65120;59.304;18.294;2023-06-26T12:42:45;101355.47;;;24.46;37.89
76311;BME280;65120;59.304;18.294;2023-06-26T12:45:13;101343.03;;;24.32;37.89